Twin Springs, Nevada Weather observations

Data are for observation ending at time listed.
 Day   Time    Ave.   Ave.  Ave.  Vector   Max.   Stn.    Total    Solar   Ave.  
  of    of     Air    Rel.  Wind   Wind    Wind   Baro.  Precip.   Rad.    Soil  
Year   Day     Temp.  Hum.  Speed  Dir.    Gust   Pres.                    Temp. 
2017   (PST)    F      %     mph   deg.    mph     mb.     in.     W/m2     F   
------------------------------------------------------------------------------
  35   21:00   40.0    77    5.4    17     10.2    844     0.00       0    43.2
  35   22:00   39.4    77    3.7   338      7.9    845     0.00       0    42.0
  35   23:00   39.1    77    3.7   341      6.7    845     0.00       0    41.0
  36    0:00   37.1    80    4.0     1      8.6    845     0.00       0    40.1
  36    1:00   35.0    84    2.8   330      8.1    845     0.00       0    39.2
  36    2:00   32.2    88    2.9   320      9.9    845     0.00       0    38.4
  36    3:00   31.3    90    4.5   310      9.9    845     0.00       0    37.6
  36    4:00   28.7    93    3.2   333      7.8    845     0.00       0    37.0
  36    5:00   27.2    95    4.6   316      6.6    844     0.00       0    36.5
  36    6:00   27.3    95    5.0   329      7.3    844     0.00       0    36.0
  36    7:00   28.2    94    4.2   330      6.9    844     0.00       1    35.5
  36    8:00   31.2    92    5.1   342      9.6    844     0.00      37    35.1
  36    9:00   31.0    90    6.1   343     10.6    845     0.00     144    34.9
  36   10:00   33.8    85    5.1   308      8.0    845     0.00     291    34.7
  36   11:00   39.1    75    4.6   319      7.7    845     0.00     519    34.7
  36   12:00   42.8    69    5.3   303      8.6    844     0.00     442    36.4
  36   13:00   44.8    67    5.3   318      9.6    842     0.00     427    38.9
  36   14:00   47.3    61    5.4   112     17.4    840     0.00     293    41.2
  36   15:00   48.5    57    9.4   154     19.7    840     0.00     186    42.7
  36   16:00   48.8    56   10.0   135     15.9    839     0.00      98    43.3
  36   17:00   48.0    56    9.4   132     18.0    839     0.00      29    43.4
  36   18:00   45.4    65    4.1   171     12.3    839     0.00       1    43.1
  36   19:00   44.7    61    7.0   128     15.0    839     0.00       0    42.6
  36   20:00   44.8    55    7.3   112     14.0    838     0.00       0    42.0

Return to Twin Springs, Nevada graphs page.


Western Regional Climate Center,wrcc@dri.edu